sensor_id;sensor_type;location;lat;lon;timestamp;temperature;humidity
5346;DHT22;2695;49.444;11.054;2023-09-30T00:00:57;18.70;99.90
5346;DHT22;2695;49.444;11.054;2023-09-30T00:03:25;18.80;99.90
5346;DHT22;2695;49.444;11.054;2023-09-30T00:05:54;18.80;99.90
5346;DHT22;2695;49.444;11.054;2023-09-30T00:08:23;18.80;99.90
5346;DHT22;2695;49.444;11.054;2023-09-30T00:10:51;18.80;99.90
5346;DHT22;2695;49.444;11.054;2023-09-30T00:13:21;18.70;99.90
5346;DHT22;2695;49.444;11.054;2023-09-30T00:15:49;18.60;99.90
5346;DHT22;2695;49.444;11.054;2023-09-30T00:18:17;18.60;99.90
5346;DHT22;2695;49.444;11.054;2023-09-30T00:20:45;18.60;99.90
5346;DHT22;2695;49.444;11.054;2023-09-30T00:23:14;18.50;99.90
5346;DHT22;2695;49.444;11.054;2023-09-30T00:25:44;18.50;99.90
5346;DHT22;2695;49.444;11.054;2023-09-30T00:28:11;18.40;99.90
5346;DHT22;2695;49.444;11.054;2023-09-30T00:30:39;18.30;99.90
5346;DHT22;2695;49.444;11.054;2023-09-30T00:33:08;18.30;99.90
5346;DHT22;2695;49.444;11.054;2023-09-30T00:35:36;18.20;99.90
5346;DHT22;2695;49.444;11.054;2023-09-30T00:38:03;18.20;99.90
5346;DHT22;2695;49.444;11.054;2023-09-30T00:40:31;18.10;99.90
5346;DHT22;2695;49.444;11.054;2023-09-30T00:43:01;18.10;99.90
5346;DHT22;2695;49.444;11.054;2023-09-30T00:45:29;18.10;99.90
5346;DHT22;2695;49.444;11.054;2023-09-30T00:47:57;18.10;99.90
5346;DHT22;2695;49.444;11.054;2023-09-30T00:50:25;18.20;99.90
5346;DHT22;2695;49.444;11.054;2023-09-30T00:52:55;18.30;99.90
5346;DHT22;2695;49.444;11.054;2023-09-30T00:55:23;18.40;99.90
5346;DHT22;2695;49.444;11.054;2023-09-30T00:57:51;18.50;99.90
5346;DHT22;2695;49.444;11.054;2023-09-30T01:00:21;18.50;99.90
5346;DHT22;2695;49.444;11.054;2023-09-30T01:02:52;18.70;99.90
5346;DHT22;2695;49.444;11.054;2023-09-30T01:05:20;18.70;99.90
5346;DHT22;2695;49.444;11.054;2023-09-30T01:07:48;18.90;99.90
5346;DHT22;2695;49.444;11.054;2023-09-30T01:10:16;18.90;99.90
5346;DHT22;2695;49.444;11.054;2023-09-30T01:12:44;18.90;99.90
5346;DHT22;2695;49.444;11.054;2023-09-30T01:15:13;19.00;99.90
5346;DHT22;2695;49.444;11.054;2023-09-30T01:17:42;19.00;99.90
5346;DHT22;2695;49.444;11.054;2023-09-30T01:20:12;19.00;99.90
5346;DHT22;2695;49.444;11.054;2023-09-30T01:22:44;19.00;99.90
5346;DHT22;2695;49.444;11.054;2023-09-30T01:25:13;19.10;99.90
5346;DHT22;2695;49.444;11.054;2023-09-30T01:27:41;19.10;99.90
5346;DHT22;2695;49.444;11.054;2023-09-30T01:30:10;19.10;99.90
5346;DHT22;2695;49.444;11.054;2023-09-30T01:32:40;19.10;99.90
5346;DHT22;2695;49.444;11.054;2023-09-30T01:35:08;19.10;99.90
5346;DHT22;2695;49.444;11.054;2023-09-30T01:37:36;19.20;99.90
5346;DHT22;2695;49.444;11.054;2023-09-30T01:40:06;19.20;99.90
5346;DHT22;2695;49.444;11.054;2023-09-30T01:42:38;19.30;99.90
5346;DHT22;2695;49.444;11.054;2023-09-30T01:45:07;19.20;99.90
5346;DHT22;2695;49.444;11.054;2023-09-30T01:47:35;19.10;99.90
5346;DHT22;2695;49.444;11.054;2023-09-30T01:50:04;19.10;99.90
5346;DHT22;2695;49.444;11.054;2023-09-30T01:52:32;19.10;99.90
5346;DHT22;2695;49.444;11.054;2023-09-30T01:55:00;19.10;99.90
5346;DHT22;2695;49.444;11.054;2023-09-30T01:57:29;19.00;99.90
5346;DHT22;2695;49.444;11.054;2023-09-30T01:59:57;19.00;99.90
5346;DHT22;2695;49.444;11.054;2023-09-30T02:02:25;19.00;99.90
5346;DHT22;2695;49.444;11.054;2023-09-30T02:04:54;19.10;99.90
5346;DHT22;2695;49.444;11.054;2023-09-30T02:07:22;19.10;99.90
5346;DHT22;2695;49.444;11.054;2023-09-30T02:09:50;19.00;99.90
5346;DHT22;2695;49.444;11.054;2023-09-30T02:12:18;19.00;99.90
5346;DHT22;2695;49.444;11.054;2023-09-30T02:14:47;19.00;99.90
5346;DHT22;2695;49.444;11.054;2023-09-30T02:17:15;19.00;99.90
5346;DHT22;2695;49.444;11.054;2023-09-30T02:19:43;19.00;99.90
5346;DHT22;2695;49.444;11.054;2023-09-30T02:22:12;19.00;99.90
5346;DHT22;2695;49.444;11.054;2023-09-30T02:24:40;19.00;99.90
5346;DHT22;2695;49.444;11.054;2023-09-30T02:27:08;19.00;99.90
5346;DHT22;2695;49.444;11.054;2023-09-30T02:29:36;19.00;99.90
5346;DHT22;2695;49.444;11.054;2023-09-30T02:32:06;19.00;99.90
5346;DHT22;2695;49.444;11.054;2023-09-30T02:34:34;19.00;99.90
5346;DHT22;2695;49.444;11.054;2023-09-30T02:37:02;19.00;99.90
5346;DHT22;2695;49.444;11.054;2023-09-30T02:39:30;19.00;99.90
5346;DHT22;2695;49.444;11.054;2023-09-30T02:41:58;19.00;99.90
5346;DHT22;2695;49.444;11.054;2023-09-30T02:44:26;19.00;99.90
5346;DHT22;2695;49.444;11.054;2023-09-30T02:46:54;19.00;99.90
5346;DHT22;2695;49.444;11.054;2023-09-30T02:49:23;19.00;99.90
5346;DHT22;2695;49.444;11.054;2023-09-30T02:51:51;19.00;99.90
5346;DHT22;2695;49.444;11.054;2023-09-30T02:54:19;19.00;99.90
5346;DHT22;2695;49.444;11.054;2023-09-30T02:56:47;19.00;99.90
5346;DHT22;2695;49.444;11.054;2023-09-30T02:59:15;19.00;99.90
5346;DHT22;2695;49.444;11.054;2023-09-30T03:01:43;19.00;99.90
5346;DHT22;2695;49.444;11.054;2023-09-30T03:04:12;19.00;99.90
5346;DHT22;2695;49.444;11.054;2023-09-30T03:06:41;18.90;99.90
5346;DHT22;2695;49.444;11.054;2023-09-30T03:09:11;18.90;99.90
5346;DHT22;2695;49.444;11.054;2023-09-30T03:11:42;18.80;99.90
5346;DHT22;2695;49.444;11.054;2023-09-30T03:14:10;18.80;99.90
5346;DHT22;2695;49.444;11.054;2023-09-30T03:16:39;18.80;99.90
5346;DHT22;2695;49.444;11.054;2023-09-30T03:19:08;18.80;99.90
5346;DHT22;2695;49.444;11.054;2023-09-30T03:21:38;18.80;99.90
5346;DHT22;2695;49.444;11.054;2023-09-30T03:24:08;18.70;99.90
5346;DHT22;2695;49.444;11.054;2023-09-30T03:26:36;18.70;99.90
5346;DHT22;2695;49.444;11.054;2023-09-30T03:29:07;18.60;99.90
5346;DHT22;2695;49.444;11.054;2023-09-30T03:31:36;18.40;99.90
5346;DHT22;2695;49.444;11.054;2023-09-30T03:34:04;18.20;99.90
5346;DHT22;2695;49.444;11.054;2023-09-30T03:36:32;18.00;99.90
5346;DHT22;2695;49.444;11.054;2023-09-30T03:39:00;18.00;99.90
5346;DHT22;2695;49.444;11.054;2023-09-30T03:41:34;17.90;99.90
5346;DHT22;2695;49.444;11.054;2023-09-30T03:44:04;17.90;99.90
5346;DHT22;2695;49.444;11.054;2023-09-30T03:46:31;17.80;99.90
5346;DHT22;2695;49.444;11.054;2023-09-30T03:49:00;17.80;99.90
5346;DHT22;2695;49.444;11.054;2023-09-30T03:51:29;17.70;99.90
5346;DHT22;2695;49.444;11.054;2023-09-30T03:53:57;17.70;99.90
5346;DHT22;2695;49.444;11.054;2023-09-30T03:56:25;17.60;99.90
5346;DHT22;2695;49.444;11.054;2023-09-30T03:58:55;17.50;99.90
5346;DHT22;2695;49.444;11.054;2023-09-30T04:01:23;17.40;99.90
5346;DHT22;2695;49.444;11.054;2023-09-30T04:03:52;17.30;99.90
5346;DHT22;2695;49.444;11.054;2023-09-30T04:06:22;17.20;99.90
5346;DHT22;2695;49.444;11.054;2023-09-30T04:08:51;17.10;99.90
5346;DHT22;2695;49.444;11.054;2023-09-30T04:11:19;17.10;99.90
5346;DHT22;2695;49.444;11.054;2023-09-30T04:13:47;17.00;99.90
5346;DHT22;2695;49.444;11.054;2023-09-30T04:16:18;16.90;99.90
5346;DHT22;2695;49.444;11.054;2023-09-30T04:18:46;16.80;99.90
5346;DHT22;2695;49.444;11.054;2023-09-30T04:21:17;16.80;99.90
5346;DHT22;2695;49.444;11.054;2023-09-30T04:27:08;16.70;99.90
5346;DHT22;2695;49.444;11.054;2023-09-30T04:29:36;16.60;99.90
5346;DHT22;2695;49.444;11.054;2023-09-30T04:32:07;16.60;99.90
5346;DHT22;2695;49.444;11.054;2023-09-30T04:34:35;16.50;99.90
5346;DHT22;2695;49.444;11.054;2023-09-30T04:37:03;16.60;99.90
5346;DHT22;2695;49.444;11.054;2023-09-30T04:39:32;16.60;99.90
5346;DHT22;2695;49.444;11.054;2023-09-30T04:42:02;16.70;99.90
5346;DHT22;2695;49.444;11.054;2023-09-30T04:44:31;16.80;99.90
5346;DHT22;2695;49.444;11.054;2023-09-30T04:46:59;16.80;99.90
5346;DHT22;2695;49.444;11.054;2023-09-30T04:49:29;16.90;99.90
5346;DHT22;2695;49.444;11.054;2023-09-30T04:51:57;17.00;99.90
5346;DHT22;2695;49.444;11.054;2023-09-30T04:54:25;17.00;99.90
5346;DHT22;2695;49.444;11.054;2023-09-30T04:56:53;17.00;99.90
5346;DHT22;2695;49.444;11.054;2023-09-30T04:59:21;17.00;99.90
5346;DHT22;2695;49.444;11.054;2023-09-30T05:01:51;17.00;99.90
5346;DHT22;2695;49.444;11.054;2023-09-30T05:04:20;17.00;99.90
5346;DHT22;2695;49.444;11.054;2023-09-30T05:06:49;17.10;99.90
5346;DHT22;2695;49.444;11.054;2023-09-30T05:09:17;17.00;99.90
5346;DHT22;2695;49.444;11.054;2023-09-30T05:11:45;16.90;99.90
5346;DHT22;2695;49.444;11.054;2023-09-30T05:14:13;16.90;99.90
5346;DHT22;2695;49.444;11.054;2023-09-30T05:16:43;17.00;99.90
5346;DHT22;2695;49.444;11.054;2023-09-30T05:19:11;16.70;99.90
5346;DHT22;2695;49.444;11.054;2023-09-30T05:21:39;16.70;99.90
5346;DHT22;2695;49.444;11.054;2023-09-30T05:24:09;16.60;99.90
5346;DHT22;2695;49.444;11.054;2023-09-30T05:26:37;16.50;99.90
5346;DHT22;2695;49.444;11.054;2023-09-30T05:29:05;16.50;99.90
5346;DHT22;2695;49.444;11.054;2023-09-30T05:31:34;16.40;99.90
5346;DHT22;2695;49.444;11.054;2023-09-30T05:34:02;16.40;99.90
5346;DHT22;2695;49.444;11.054;2023-09-30T05:36:30;16.40;99.90
5346;DHT22;2695;49.444;11.054;2023-09-30T05:38:58;16.40;99.90
5346;DHT22;2695;49.444;11.054;2023-09-30T05:41:28;16.30;99.90
5346;DHT22;2695;49.444;11.054;2023-09-30T05:43:56;16.40;99.90
5346;DHT22;2695;49.444;11.054;2023-09-30T05:46:25;16.40;99.90
5346;DHT22;2695;49.444;11.054;2023-09-30T05:48:53;16.40;99.90
5346;DHT22;2695;49.444;11.054;2023-09-30T05:51:22;16.40;99.90
5346;DHT22;2695;49.444;11.054;2023-09-30T05:53:50;16.40;99.90
5346;DHT22;2695;49.444;11.054;2023-09-30T05:56:19;16.40;99.90
5346;DHT22;2695;49.444;11.054;2023-09-30T05:58:48;16.40;99.90
5346;DHT22;2695;49.444;11.054;2023-09-30T06:01:16;16.30;99.90
5346;DHT22;2695;49.444;11.054;2023-09-30T06:03:46;16.30;99.90
5346;DHT22;2695;49.444;11.054;2023-09-30T06:06:14;16.40;99.90
5346;DHT22;2695;49.444;11.054;2023-09-30T06:08:43;16.30;99.90
5346;DHT22;2695;49.444;11.054;2023-09-30T06:11:16;16.40;99.90
5346;DHT22;2695;49.444;11.054;2023-09-30T06:13:44;16.40;99.90
5346;DHT22;2695;49.444;11.054;2023-09-30T06:16:14;16.50;99.90
5346;DHT22;2695;49.444;11.054;2023-09-30T06:18:42;16.70;99.90
5346;DHT22;2695;49.444;11.054;2023-09-30T06:21:12;16.80;99.90
5346;DHT22;2695;49.444;11.054;2023-09-30T06:23:41;16.90;99.90
5346;DHT22;2695;49.444;11.054;2023-09-30T06:26:09;17.00;99.90
5346;DHT22;2695;49.444;11.054;2023-09-30T06:28:37;17.00;99.90
5346;DHT22;2695;49.444;11.054;2023-09-30T06:31:08;17.10;99.90
5346;DHT22;2695;49.444;11.054;2023-09-30T06:33:38;17.20;99.90
5346;DHT22;2695;49.444;11.054;2023-09-30T06:36:10;17.20;99.90
5346;DHT22;2695;49.444;11.054;2023-09-30T06:38:40;17.20;99.90
5346;DHT22;2695;49.444;11.054;2023-09-30T06:41:09;17.20;99.90
5346;DHT22;2695;49.444;11.054;2023-09-30T06:43:37;17.30;99.90
5346;DHT22;2695;49.444;11.054;2023-09-30T06:46:08;17.30;99.90
5346;DHT22;2695;49.444;11.054;2023-09-30T06:48:39;17.40;99.90
5346;DHT22;2695;49.444;11.054;2023-09-30T06:51:07;17.40;99.90
5346;DHT22;2695;49.444;11.054;2023-09-30T06:53:37;17.50;99.90
5346;DHT22;2695;49.444;11.054;2023-09-30T06:56:05;17.60;99.90
5346;DHT22;2695;49.444;11.054;2023-09-30T06:58:33;17.60;99.90
5346;DHT22;2695;49.444;11.054;2023-09-30T07:01:01;17.70;99.90
5346;DHT22;2695;49.444;11.054;2023-09-30T07:03:30;17.70;99.90
5346;DHT22;2695;49.444;11.054;2023-09-30T07:06:01;17.80;99.90
5346;DHT22;2695;49.444;11.054;2023-09-30T07:08:29;17.90;99.90
5346;DHT22;2695;49.444;11.054;2023-09-30T07:10:57;17.90;99.90
5346;DHT22;2695;49.444;11.054;2023-09-30T07:13:25;18.00;99.90
5346;DHT22;2695;49.444;11.054;2023-09-30T07:15:53;18.00;99.90
5346;DHT22;2695;49.444;11.054;2023-09-30T07:18:21;17.90;99.90
5346;DHT22;2695;49.444;11.054;2023-09-30T07:20:51;17.80;99.90
5346;DHT22;2695;49.444;11.054;2023-09-30T07:23:21;17.80;99.90
5346;DHT22;2695;49.444;11.054;2023-09-30T07:25:49;17.80;99.90
5346;DHT22;2695;49.444;11.054;2023-09-30T07:28:17;17.80;99.90
5346;DHT22;2695;49.444;11.054;2023-09-30T07:30:45;17.90;99.90
5346;DHT22;2695;49.444;11.054;2023-09-30T07:33:17;18.10;99.90
5346;DHT22;2695;49.444;11.054;2023-09-30T07:35:45;18.20;99.90
5346;DHT22;2695;49.444;11.054;2023-09-30T07:38:13;18.40;99.90
5346;DHT22;2695;49.444;11.054;2023-09-30T07:40:42;18.60;99.90
5346;DHT22;2695;49.444;11.054;2023-09-30T07:43:10;18.80;99.90
5346;DHT22;2695;49.444;11.054;2023-09-30T07:45:39;18.60;99.90
5346;DHT22;2695;49.444;11.054;2023-09-30T07:48:07;18.60;99.90
5346;DHT22;2695;49.444;11.054;2023-09-30T07:50:36;18.50;99.90
5346;DHT22;2695;49.444;11.054;2023-09-30T07:53:04;18.50;99.90
5346;DHT22;2695;49.444;11.054;2023-09-30T07:55:32;18.60;99.90
5346;DHT22;2695;49.444;11.054;2023-09-30T07:58:02;18.60;99.90
5346;DHT22;2695;49.444;11.054;2023-09-30T08:00:30;18.60;99.90
5346;DHT22;2695;49.444;11.054;2023-09-30T08:03:01;18.70;99.90
5346;DHT22;2695;49.444;11.054;2023-09-30T08:05:29;18.80;99.90
5346;DHT22;2695;49.444;11.054;2023-09-30T08:07:57;18.80;99.90
5346;DHT22;2695;49.444;11.054;2023-09-30T08:10:25;18.90;99.90
5346;DHT22;2695;49.444;11.054;2023-09-30T08:12:53;19.10;99.90
5346;DHT22;2695;49.444;11.054;2023-09-30T08:15:25;19.40;99.90
5346;DHT22;2695;49.444;11.054;2023-09-30T08:17:54;19.70;99.90
5346;DHT22;2695;49.444;11.054;2023-09-30T08:20:22;19.80;99.90
5346;DHT22;2695;49.444;11.054;2023-09-30T08:22:50;20.00;99.90
5346;DHT22;2695;49.444;11.054;2023-09-30T08:25:18;20.20;99.90
5346;DHT22;2695;49.444;11.054;2023-09-30T08:27:46;20.40;99.90
5346;DHT22;2695;49.444;11.054;2023-09-30T08:30:16;20.50;99.90
5346;DHT22;2695;49.444;11.054;2023-09-30T08:32:47;20.60;99.90
5346;DHT22;2695;49.444;11.054;2023-09-30T08:35:17;20.70;99.90
5346;DHT22;2695;49.444;11.054;2023-09-30T08:37:46;20.80;99.90
5346;DHT22;2695;49.444;11.054;2023-09-30T08:40:20;20.90;99.90
5346;DHT22;2695;49.444;11.054;2023-09-30T08:46:12;21.20;99.90
5346;DHT22;2695;49.444;11.054;2023-09-30T08:48:45;21.40;99.90
5346;DHT22;2695;49.444;11.054;2023-09-30T08:51:15;21.60;99.90
5346;DHT22;2695;49.444;11.054;2023-09-30T08:54:11;21.60;99.90
5346;DHT22;2695;49.444;11.054;2023-09-30T08:56:41;21.60;99.90
5346;DHT22;2695;49.444;11.054;2023-09-30T08:59:11;21.70;99.90
5346;DHT22;2695;49.444;11.054;2023-09-30T09:01:39;22.00;99.90
5346;DHT22;2695;49.444;11.054;2023-09-30T09:04:09;22.30;99.90
5346;DHT22;2695;49.444;11.054;2023-09-30T09:06:37;22.70;99.90
5346;DHT22;2695;49.444;11.054;2023-09-30T09:09:15;22.90;99.90
5346;DHT22;2695;49.444;11.054;2023-09-30T09:11:45;23.10;99.90
5346;DHT22;2695;49.444;11.054;2023-09-30T09:14:14;23.10;99.90
5346;DHT22;2695;49.444;11.054;2023-09-30T09:16:51;23.10;99.90
5346;DHT22;2695;49.444;11.054;2023-09-30T09:19:22;22.90;99.90
5346;DHT22;2695;49.444;11.054;2023-09-30T09:21:55;23.10;99.90
5346;DHT22;2695;49.444;11.054;2023-09-30T09:24:28;23.40;99.90
5346;DHT22;2695;49.444;11.054;2023-09-30T09:27:07;23.60;99.90
5346;DHT22;2695;49.444;11.054;2023-09-30T09:29:35;23.90;99.90
5346;DHT22;2695;49.444;11.054;2023-09-30T09:32:07;24.10;99.90
5346;DHT22;2695;49.444;11.054;2023-09-30T09:34:37;24.20;99.90
5346;DHT22;2695;49.444;11.054;2023-09-30T09:37:16;24.10;99.90
5346;DHT22;2695;49.444;11.054;2023-09-30T09:39:55;24.10;99.90
5346;DHT22;2695;49.444;11.054;2023-09-30T09:42:25;25.00;99.90
5346;DHT22;2695;49.444;11.054;2023-09-30T09:44:56;25.80;99.90
5346;DHT22;2695;49.444;11.054;2023-09-30T09:47:25;25.80;99.90
5346;DHT22;2695;49.444;11.054;2023-09-30T09:49:57;25.80;99.40
5346;DHT22;2695;49.444;11.054;2023-09-30T09:52:25;26.10;98.30
5346;DHT22;2695;49.444;11.054;2023-09-30T09:54:55;26.50;95.20
5346;DHT22;2695;49.444;11.054;2023-09-30T09:57:25;26.40;95.00
5346;DHT22;2695;49.444;11.054;2023-09-30T09:59:54;27.10;94.10
5346;DHT22;2695;49.444;11.054;2023-09-30T10:02:26;28.20;92.30
5346;DHT22;2695;49.444;11.054;2023-09-30T10:04:57;28.90;87.90
5346;DHT22;2695;49.444;11.054;2023-09-30T10:07:28;28.90;84.00
5346;DHT22;2695;49.444;11.054;2023-09-30T10:10:01;28.20;85.50
5346;DHT22;2695;49.444;11.054;2023-09-30T10:12:36;27.70;86.60
5346;DHT22;2695;49.444;11.054;2023-09-30T10:15:37;27.50;86.50
5346;DHT22;2695;49.444;11.054;2023-09-30T10:18:07;27.50;86.50
5346;DHT22;2695;49.444;11.054;2023-09-30T10:20:43;27.40;86.50
5346;DHT22;2695;49.444;11.054;2023-09-30T10:23:25;27.20;86.00
5346;DHT22;2695;49.444;11.054;2023-09-30T10:26:13;26.90;87.50
5346;DHT22;2695;49.444;11.054;2023-09-30T10:28:43;26.60;88.60
5346;DHT22;2695;49.444;11.054;2023-09-30T10:31:14;26.20;90.20
5346;DHT22;2695;49.444;11.054;2023-09-30T10:34:17;25.70;90.70
5346;DHT22;2695;49.444;11.054;2023-09-30T10:36:48;25.30;91.40
5346;DHT22;2695;49.444;11.054;2023-09-30T10:42:47;24.80;92.70
5346;DHT22;2695;49.444;11.054;2023-09-30T10:45:44;24.50;93.50
5346;DHT22;2695;49.444;11.054;2023-09-30T10:48:36;24.40;93.90
5346;DHT22;2695;49.444;11.054;2023-09-30T10:51:14;24.40;93.70
5346;DHT22;2695;49.444;11.054;2023-09-30T10:53:48;24.30;93.90
5346;DHT22;2695;49.444;11.054;2023-09-30T10:56:18;24.50;93.80
5346;DHT22;2695;49.444;11.054;2023-09-30T10:58:47;24.60;93.80
5346;DHT22;2695;49.444;11.054;2023-09-30T11:01:17;24.70;93.40
5346;DHT22;2695;49.444;11.054;2023-09-30T11:03:46;24.60;93.50
5346;DHT22;2695;49.444;11.054;2023-09-30T11:06:19;24.50;93.10
5346;DHT22;2695;49.444;11.054;2023-09-30T11:08:54;24.40;94.00
5346;DHT22;2695;49.444;11.054;2023-09-30T11:11:36;24.60;93.00
5346;DHT22;2695;49.444;11.054;2023-09-30T11:14:17;24.80;91.50
5346;DHT22;2695;49.444;11.054;2023-09-30T11:16:45;25.00;91.30
5346;DHT22;2695;49.444;11.054;2023-09-30T11:19:14;25.20;90.70
5346;DHT22;2695;49.444;11.054;2023-09-30T11:21:43;25.30;90.00
5346;DHT22;2695;49.444;11.054;2023-09-30T11:24:13;25.30;89.60
5346;DHT22;2695;49.444;11.054;2023-09-30T11:26:42;25.40;88.70
5346;DHT22;2695;49.444;11.054;2023-09-30T11:29:11;25.60;88.20
5346;DHT22;2695;49.444;11.054;2023-09-30T11:31:40;25.70;86.90
5346;DHT22;2695;49.444;11.054;2023-09-30T11:34:10;25.80;86.90
5346;DHT22;2695;49.444;11.054;2023-09-30T11:36:40;25.70;87.10
5346;DHT22;2695;49.444;11.054;2023-09-30T11:39:09;25.60;86.60
5346;DHT22;2695;49.444;11.054;2023-09-30T11:41:42;25.40;87.80
5346;DHT22;2695;49.444;11.054;2023-09-30T11:44:11;25.60;87.20
5346;DHT22;2695;49.444;11.054;2023-09-30T11:46:49;25.70;86.00
5346;DHT22;2695;49.444;11.054;2023-09-30T11:49:26;25.70;83.50
5346;DHT22;2695;49.444;11.054;2023-09-30T11:51:55;25.70;83.50
5346;DHT22;2695;49.444;11.054;2023-09-30T11:54:30;25.70;84.50
5346;DHT22;2695;49.444;11.054;2023-09-30T11:57:01;25.80;82.90
5346;DHT22;2695;49.444;11.054;2023-09-30T11:59:29;25.80;82.40
5346;DHT22;2695;49.444;11.054;2023-09-30T12:01:58;25.80;82.10
5346;DHT22;2695;49.444;11.054;2023-09-30T12:04:41;25.90;82.30
5346;DHT22;2695;49.444;11.054;2023-09-30T12:07:10;26.00;82.00
5346;DHT22;2695;49.444;11.054;2023-09-30T12:09:38;26.10;81.10
5346;DHT22;2695;49.444;11.054;2023-09-30T12:12:08;26.10;80.90
5346;DHT22;2695;49.444;11.054;2023-09-30T12:14:38;26.00;81.70
5346;DHT22;2695;49.444;11.054;2023-09-30T12:17:06;26.00;82.00
5346;DHT22;2695;49.444;11.054;2023-09-30T12:19:38;26.00;80.50
5346;DHT22;2695;49.444;11.054;2023-09-30T12:22:07;25.80;80.20
5346;DHT22;2695;49.444;11.054;2023-09-30T12:24:36;25.70;81.50
5346;DHT22;2695;49.444;11.054;2023-09-30T12:27:05;25.60;81.60
5346;DHT22;2695;49.444;11.054;2023-09-30T12:29:34;25.40;80.90
5346;DHT22;2695;49.444;11.054;2023-09-30T12:32:05;25.20;82.00
5346;DHT22;2695;49.444;11.054;2023-09-30T12:34:34;25.00;82.80
5346;DHT22;2695;49.444;11.054;2023-09-30T12:37:03;24.60;82.90
5346;DHT22;2695;49.444;11.054;2023-09-30T12:39:31;24.40;83.10
5346;DHT22;2695;49.444;11.054;2023-09-30T12:42:00;24.20;84.00
5346;DHT22;2695;49.444;11.054;2023-09-30T12:44:28;23.90;84.30
5346;DHT22;2695;49.444;11.054;2023-09-30T12:46:58;23.70;86.10
5346;DHT22;2695;49.444;11.054;2023-09-30T12:49:26;23.60;86.90
5346;DHT22;2695;49.444;11.054;2023-09-30T12:51:54;23.50;86.60
5346;DHT22;2695;49.444;11.054;2023-09-30T12:54:22;23.40;86.00
5346;DHT22;2695;49.444;11.054;2023-09-30T12:56:50;23.30;86.90
5346;DHT22;2695;49.444;11.054;2023-09-30T12:59:18;23.10;87.80
5346;DHT22;2695;49.444;11.054;2023-09-30T13:01:51;23.00;87.90
5346;DHT22;2695;49.444;11.054;2023-09-30T13:04:20;22.90;89.80
5346;DHT22;2695;49.444;11.054;2023-09-30T13:06:50;22.90;89.40
5346;DHT22;2695;49.444;11.054;2023-09-30T13:09:18;22.90;89.10
5346;DHT22;2695;49.444;11.054;2023-09-30T13:11:46;22.80;89.80
5346;DHT22;2695;49.444;11.054;2023-09-30T13:14:14;22.70;90.60
5346;DHT22;2695;49.444;11.054;2023-09-30T13:16:44;22.70;91.10
5346;DHT22;2695;49.444;11.054;2023-09-30T13:19:12;22.70;90.40
5346;DHT22;2695;49.444;11.054;2023-09-30T13:21:43;22.70;90.20
5346;DHT22;2695;49.444;11.054;2023-09-30T13:24:11;22.60;90.10
5346;DHT22;2695;49.444;11.054;2023-09-30T13:26:39;22.60;90.50
5346;DHT22;2695;49.444;11.054;2023-09-30T13:29:08;22.60;90.30
5346;DHT22;2695;49.444;11.054;2023-09-30T13:31:36;22.50;90.60
5346;DHT22;2695;49.444;11.054;2023-09-30T13:34:05;22.50;90.10
5346;DHT22;2695;49.444;11.054;2023-09-30T13:36:33;22.40;90.30
5346;DHT22;2695;49.444;11.054;2023-09-30T13:39:02;22.40;90.40
5346;DHT22;2695;49.444;11.054;2023-09-30T13:41:34;22.40;90.50
5346;DHT22;2695;49.444;11.054;2023-09-30T13:44:02;22.30;90.20
5346;DHT22;2695;49.444;11.054;2023-09-30T13:46:30;22.30;90.20
5346;DHT22;2695;49.444;11.054;2023-09-30T13:48:58;22.30;90.20
5346;DHT22;2695;49.444;11.054;2023-09-30T13:51:26;22.30;90.30
5346;DHT22;2695;49.444;11.054;2023-09-30T13:53:54;22.30;90.20
5346;DHT22;2695;49.444;11.054;2023-09-30T13:56:23;22.30;90.00
5346;DHT22;2695;49.444;11.054;2023-09-30T13:58:51;22.20;90.00
5346;DHT22;2695;49.444;11.054;2023-09-30T14:01:19;22.10;88.60
5346;DHT22;2695;49.444;11.054;2023-09-30T14:03:47;22.10;90.10
5346;DHT22;2695;49.444;11.054;2023-09-30T14:06:16;22.00;90.20
5346;DHT22;2695;49.444;11.054;2023-09-30T14:08:43;22.00;91.00
5346;DHT22;2695;49.444;11.054;2023-09-30T14:11:12;22.00;90.70
5346;DHT22;2695;49.444;11.054;2023-09-30T14:13:42;22.00;90.30
5346;DHT22;2695;49.444;11.054;2023-09-30T14:16:13;21.90;90.60
5346;DHT22;2695;49.444;11.054;2023-09-30T14:18:41;21.80;91.10
5346;DHT22;2695;49.444;11.054;2023-09-30T14:21:09;21.90;91.20
5346;DHT22;2695;49.444;11.054;2023-09-30T14:23:37;21.90;91.30
5346;DHT22;2695;49.444;11.054;2023-09-30T14:26:06;21.80;91.40
5346;DHT22;2695;49.444;11.054;2023-09-30T14:28:37;21.70;90.90
5346;DHT22;2695;49.444;11.054;2023-09-30T14:31:07;21.70;90.60
5346;DHT22;2695;49.444;11.054;2023-09-30T14:33:35;21.60;90.70
5346;DHT22;2695;49.444;11.054;2023-09-30T14:36:03;21.60;91.00
5346;DHT22;2695;49.444;11.054;2023-09-30T14:38:32;21.50;90.90
5346;DHT22;2695;49.444;11.054;2023-09-30T14:41:00;21.40;91.60
5346;DHT22;2695;49.444;11.054;2023-09-30T14:43:28;21.40;91.60
5346;DHT22;2695;49.444;11.054;2023-09-30T14:45:56;21.40;91.70
5346;DHT22;2695;49.444;11.054;2023-09-30T14:48:26;21.40;91.60
5346;DHT22;2695;49.444;11.054;2023-09-30T14:50:53;21.30;92.30
5346;DHT22;2695;49.444;11.054;2023-09-30T14:53:21;21.30;92.30
5346;DHT22;2695;49.444;11.054;2023-09-30T14:55:49;21.20;92.00
5346;DHT22;2695;49.444;11.054;2023-09-30T14:58:17;21.40;92.00
5346;DHT22;2695;49.444;11.054;2023-09-30T15:00:45;21.30;92.50
5346;DHT22;2695;49.444;11.054;2023-09-30T15:03:14;21.10;92.00
5346;DHT22;2695;49.444;11.054;2023-09-30T15:05:43;21.20;91.70
5346;DHT22;2695;49.444;11.054;2023-09-30T15:08:11;21.20;91.90
5346;DHT22;2695;49.444;11.054;2023-09-30T15:10:38;21.10;91.60
5346;DHT22;2695;49.444;11.054;2023-09-30T15:13:06;21.00;91.70
5346;DHT22;2695;49.444;11.054;2023-09-30T15:15:35;21.00;92.10
5346;DHT22;2695;49.444;11.054;2023-09-30T15:18:04;21.00;91.80
5346;DHT22;2695;49.444;11.054;2023-09-30T15:20:38;20.90;91.40
5346;DHT22;2695;49.444;11.054;2023-09-30T15:23:07;20.90;91.90
5346;DHT22;2695;49.444;11.054;2023-09-30T15:25:39;20.90;92.60
5346;DHT22;2695;49.444;11.054;2023-09-30T15:28:08;20.80;92.80
5346;DHT22;2695;49.444;11.054;2023-09-30T15:30:36;20.70;93.00
5346;DHT22;2695;49.444;11.054;2023-09-30T15:33:04;20.70;93.20
5346;DHT22;2695;49.444;11.054;2023-09-30T15:35:32;20.70;92.60
5346;DHT22;2695;49.444;11.054;2023-09-30T15:38:00;20.60;92.60
5346;DHT22;2695;49.444;11.054;2023-09-30T15:40:29;20.60;92.90
5346;DHT22;2695;49.444;11.054;2023-09-30T15:42:58;20.50;93.20
5346;DHT22;2695;49.444;11.054;2023-09-30T15:45:27;20.40;93.50
5346;DHT22;2695;49.444;11.054;2023-09-30T15:47:55;20.40;93.40
5346;DHT22;2695;49.444;11.054;2023-09-30T15:50:23;20.30;94.10
5346;DHT22;2695;49.444;11.054;2023-09-30T15:52:50;20.30;94.40
5346;DHT22;2695;49.444;11.054;2023-09-30T15:55:18;20.20;94.90
5346;DHT22;2695;49.444;11.054;2023-09-30T15:57:48;20.10;95.40
5346;DHT22;2695;49.444;11.054;2023-09-30T16:00:16;20.00;95.40
5346;DHT22;2695;49.444;11.054;2023-09-30T16:02:44;20.00;95.00
5346;DHT22;2695;49.444;11.054;2023-09-30T16:05:12;20.00;95.20
5346;DHT22;2695;49.444;11.054;2023-09-30T16:07:40;20.10;95.60
5346;DHT22;2695;49.444;11.054;2023-09-30T16:10:08;20.00;95.40